createdAt,value
2019-02-17T00:01:23.189Z,4.70
2019-02-17T00:03:57.690Z,4.70
2019-02-17T00:06:31.527Z,4.70
2019-02-17T00:09:05.150Z,4.70
2019-02-17T00:11:38.993Z,4.60
2019-02-17T00:14:13.618Z,4.50
2019-02-17T00:16:47.381Z,4.40
2019-02-17T00:19:21.731Z,4.30
2019-02-17T00:21:55.476Z,4.30
2019-02-17T00:24:29.078Z,4.30
2019-02-17T00:27:02.824Z,4.30
2019-02-17T00:29:36.544Z,4.30
2019-02-17T00:32:10.923Z,4.20
2019-02-17T00:34:44.513Z,4.20
2019-02-17T00:37:18.428Z,4.10
2019-02-17T00:39:51.994Z,4.10
2019-02-17T00:42:25.565Z,4.10
2019-02-17T00:44:59.905Z,4.10
2019-02-17T00:47:33.604Z,4.10
2019-02-17T00:50:07.306Z,4.10
2019-02-17T00:52:41.099Z,4.10
2019-02-17T00:55:15.415Z,4.00
2019-02-17T00:57:49.798Z,3.90
2019-02-17T01:00:23.518Z,3.90
2019-02-17T01:02:57.108Z,4.00
2019-02-17T01:05:30.741Z,4.00
2019-02-17T01:08:04.305Z,4.00
2019-02-17T01:10:37.926Z,3.90
2019-02-17T01:13:12.258Z,3.80
2019-02-17T01:15:46.674Z,3.80
2019-02-17T01:18:20.383Z,3.80
2019-02-17T01:20:54.183Z,3.80
2019-02-17T01:23:27.769Z,3.70
2019-02-17T01:26:01.384Z,3.70
2019-02-17T01:28:34.972Z,3.70
2019-02-17T01:31:08.712Z,3.70
2019-02-17T01:33:42.312Z,3.70
2019-02-17T01:36:15.987Z,3.60
2019-02-17T01:38:49.527Z,3.50
2019-02-17T01:41:23.091Z,3.50
2019-02-17T01:43:56.704Z,3.50
2019-02-17T01:46:30.299Z,3.60
2019-02-17T01:49:03.920Z,3.50
2019-02-17T01:51:37.474Z,3.50
2019-02-17T01:54:11.084Z,3.50
2019-02-17T01:56:44.683Z,3.40
2019-02-17T01:59:18.311Z,3.40
2019-02-17T02:01:51.884Z,3.40
2019-02-17T02:04:25.578Z,3.30
2019-02-17T02:06:59.275Z,3.30
2019-02-17T02:09:32.835Z,3.20
2019-02-17T02:12:06.666Z,3.20
2019-02-17T02:14:40.448Z,3.20
2019-02-17T02:17:14.288Z,3.20
2019-02-17T02:19:48.046Z,3.10
2019-02-17T02:22:21.768Z,3.10
2019-02-17T02:24:55.357Z,3.20
2019-02-17T02:27:29.121Z,3.20
2019-02-17T02:30:02.663Z,3.20
2019-02-17T02:32:36.220Z,3.20
2019-02-17T02:35:09.856Z,3.10
2019-02-17T02:37:43.430Z,3.10
2019-02-17T02:40:16.954Z,3.20
2019-02-17T02:42:50.552Z,3.10
2019-02-17T02:45:24.109Z,3.10
2019-02-17T02:47:57.698Z,3.10
2019-02-17T02:50:31.390Z,3.10
2019-02-17T02:53:05.041Z,3.10
2019-02-17T02:55:39.574Z,3.00
2019-02-17T02:58:13.879Z,2.90
2019-02-17T03:00:47.569Z,2.90
2019-02-17T03:03:21.185Z,2.90
2019-02-17T03:05:57.520Z,2.80
2019-02-17T03:08:31.252Z,2.80
2019-02-17T03:11:05.046Z,2.80
2019-02-17T03:13:38.815Z,2.80
2019-02-17T03:16:12.378Z,2.70
2019-02-17T03:18:46.882Z,2.70
2019-02-17T03:21:21.448Z,2.70
2019-02-17T03:23:55.165Z,2.60
2019-02-17T03:26:28.761Z,2.60
2019-02-17T03:29:03.134Z,2.50
2019-02-17T03:31:36.736Z,2.50
2019-02-17T03:34:10.491Z,2.50
2019-02-17T03:36:44.915Z,2.50
2019-02-17T03:39:18.739Z,2.50
2019-02-17T03:41:52.315Z,2.50
2019-02-17T03:44:26.077Z,2.40
2019-02-17T03:46:59.782Z,2.50
2019-02-17T03:49:33.553Z,2.50
2019-02-17T03:52:07.189Z,2.50
2019-02-17T03:54:40.954Z,2.50
2019-02-17T03:57:14.573Z,2.40
2019-02-17T03:59:48.260Z,2.30
2019-02-17T04:02:22.073Z,2.30
2019-02-17T04:04:55.790Z,2.20
2019-02-17T04:07:29.499Z,2.20
2019-02-17T04:10:03.950Z,2.20
2019-02-17T04:12:37.603Z,2.10
2019-02-17T04:15:11.247Z,2.20
2019-02-17T04:17:45.904Z,2.10
2019-02-17T04:20:19.639Z,2.10
2019-02-17T04:22:53.225Z,2.00
2019-02-17T04:25:26.847Z,2.00
2019-02-17T04:28:00.387Z,2.00
2019-02-17T04:30:34.110Z,2.00
2019-02-17T04:33:07.676Z,2.00
2019-02-17T04:35:41.295Z,2.00
2019-02-17T04:38:14.860Z,2.00
2019-02-17T04:40:48.517Z,2.00
2019-02-17T04:43:22.130Z,2.00
2019-02-17T04:45:56.510Z,1.90
2019-02-17T04:48:30.138Z,1.90
2019-02-17T04:51:03.874Z,1.90
2019-02-17T04:53:37.463Z,1.90
2019-02-17T04:56:11.105Z,1.80
2019-02-17T04:58:44.891Z,1.80
2019-02-17T05:01:18.616Z,1.90
2019-02-17T05:03:52.346Z,1.90
2019-02-17T05:06:26.742Z,1.90
2019-02-17T05:09:00.527Z,1.90
2019-02-17T05:11:34.155Z,1.90
2019-02-17T05:14:07.749Z,1.90
2019-02-17T05:16:41.495Z,1.90
2019-02-17T05:19:15.309Z,1.90
2019-02-17T05:21:48.903Z,1.80
2019-02-17T05:24:22.512Z,1.80
2019-02-17T05:26:56.177Z,1.80
2019-02-17T05:29:29.702Z,1.80
2019-02-17T05:32:03.305Z,1.80
2019-02-17T05:34:37.098Z,1.80
2019-02-17T05:37:10.891Z,1.80
2019-02-17T05:39:45.217Z,1.70
2019-02-17T05:42:18.923Z,1.70
2019-02-17T05:44:52.753Z,1.70
2019-02-17T05:47:26.343Z,1.80
2019-02-17T05:50:00.032Z,1.80
2019-02-17T05:52:34.555Z,1.80
2019-02-17T05:55:08.243Z,1.80
2019-02-17T05:57:42.694Z,1.80
2019-02-17T06:00:17.086Z,1.80
2019-02-17T06:02:50.860Z,1.80
2019-02-17T06:05:24.615Z,1.80
2019-02-17T06:07:59.010Z,1.80
2019-02-17T06:10:32.731Z,1.80
2019-02-17T06:13:07.051Z,1.80
2019-02-17T06:15:40.792Z,1.80
2019-02-17T06:18:14.466Z,1.80
2019-02-17T06:20:48.208Z,1.90
2019-02-17T06:23:21.782Z,1.80
2019-02-17T06:25:55.621Z,1.70
2019-02-17T06:28:29.256Z,1.60
2019-02-17T06:31:13.697Z,1.60
2019-02-17T06:33:37.693Z,1.60
2019-02-17T06:36:12.256Z,1.60
2019-02-17T06:38:46.905Z,1.60
2019-02-17T06:41:20.569Z,1.70
2019-02-17T06:43:54.242Z,1.70
2019-02-17T06:46:30.026Z,1.70
2019-02-17T06:49:03.715Z,1.70
2019-02-17T06:51:37.508Z,1.70
2019-02-17T06:54:11.195Z,1.80
2019-02-17T06:56:44.732Z,1.70
2019-02-17T06:59:19.159Z,1.70
2019-02-17T07:01:53.467Z,1.70
2019-02-17T07:04:27.635Z,1.70
2019-02-17T07:07:01.252Z,1.80
2019-02-17T07:09:34.917Z,1.80
2019-02-17T07:12:09.212Z,1.90
2019-02-17T07:14:42.826Z,1.90
2019-02-17T07:17:16.492Z,1.90
2019-02-17T07:19:50.314Z,1.80
2019-02-17T07:22:23.984Z,1.90
2019-02-17T07:24:57.835Z,2.10
2019-02-17T07:27:31.414Z,2.20
2019-02-17T07:30:05.043Z,2.10
2019-02-17T07:32:38.704Z,2.10
2019-02-17T07:35:12.343Z,2.00
2019-02-17T07:37:46.001Z,2.20
2019-02-17T07:40:20.395Z,2.30
2019-02-17T07:42:54.024Z,2.30
2019-02-17T07:45:27.829Z,2.40
2019-02-17T07:48:01.440Z,2.50
2019-02-17T07:50:35.859Z,2.80
2019-02-17T07:53:09.579Z,2.80
2019-02-17T07:55:43.283Z,3.10
2019-02-17T07:58:17.591Z,5.30
2019-02-17T08:00:51.907Z,6.90
2019-02-17T08:03:26.476Z,8.40
2019-02-17T08:06:00.187Z,8.40
2019-02-17T08:08:33.906Z,9.70
2019-02-17T08:11:07.555Z,10.70
2019-02-17T08:13:41.900Z,12.30
2019-02-17T08:16:15.398Z,12.20
2019-02-17T08:18:48.991Z,12.50
2019-02-17T08:21:22.745Z,12.80
2019-02-17T08:23:56.531Z,13.20
2019-02-17T08:26:30.205Z,13.70
2019-02-17T08:29:03.818Z,14.20
2019-02-17T08:31:37.624Z,14.70
2019-02-17T08:34:11.354Z,15.10
2019-02-17T08:36:44.934Z,15.60
2019-02-17T08:39:18.518Z,15.90
2019-02-17T08:41:52.152Z,16.40
2019-02-17T08:44:25.759Z,16.90
2019-02-17T08:46:59.439Z,16.90
2019-02-17T08:49:33.029Z,17.40
2019-02-17T08:52:06.650Z,17.90
2019-02-17T08:54:40.324Z,18.20
2019-02-17T08:57:13.954Z,18.60
2019-02-17T08:59:47.750Z,19.20
2019-02-17T09:02:21.422Z,19.50
2019-02-17T09:04:54.985Z,19.60
2019-02-17T09:07:28.743Z,19.90
2019-02-17T09:10:02.342Z,20.30
2019-02-17T09:12:36.011Z,20.80
2019-02-17T09:15:09.671Z,21.10
2019-02-17T09:17:43.610Z,21.40
2019-02-17T09:20:17.355Z,22.00
2019-02-17T09:22:51.103Z,22.00
2019-02-17T09:25:24.814Z,21.90
2019-02-17T09:27:59.269Z,22.60
2019-02-17T09:30:33.127Z,22.60
2019-02-17T09:33:06.823Z,23.30
2019-02-17T09:35:40.572Z,24.10
2019-02-17T09:38:14.280Z,24.70
2019-02-17T09:40:48.132Z,25.10
2019-02-17T09:43:21.637Z,25.20
2019-02-17T09:45:55.303Z,25.20
2019-02-17T09:48:28.944Z,25.40
2019-02-17T09:51:02.524Z,25.70
2019-02-17T09:53:36.978Z,26.30
2019-02-17T09:56:11.479Z,26.90
2019-02-17T09:58:45.197Z,26.90
2019-02-17T10:01:18.770Z,27.30
2019-02-17T10:03:52.440Z,27.20
2019-02-17T10:06:26.888Z,28.00
2019-02-17T10:09:01.399Z,28.10
2019-02-17T10:11:34.932Z,28.10
2019-02-17T10:14:08.577Z,27.90
2019-02-17T10:16:42.340Z,28.40
2019-02-17T10:19:16.011Z,28.80
2019-02-17T10:21:49.799Z,29.00
2019-02-17T10:24:23.434Z,29.50
2019-02-17T10:26:57.062Z,29.30
2019-02-17T10:29:30.790Z,29.10
2019-02-17T10:32:04.378Z,29.60
2019-02-17T10:34:38.207Z,30.60
2019-02-17T10:37:11.941Z,32.00
2019-02-17T10:39:45.665Z,32.30
2019-02-17T10:42:19.378Z,32.20
2019-02-17T10:44:53.077Z,32.00
2019-02-17T10:47:26.798Z,32.60
2019-02-17T10:50:00.386Z,32.90
2019-02-17T10:52:33.994Z,33.80
2019-02-17T10:55:10.351Z,34.30
2019-02-17T10:57:44.051Z,34.20
2019-02-17T11:00:17.687Z,34.40
2019-02-17T11:02:51.438Z,34.40
2019-02-17T11:05:25.175Z,35.60
2019-02-17T11:07:58.768Z,35.70
2019-02-17T11:10:32.341Z,35.40
2019-02-17T11:13:05.963Z,34.70
2019-02-17T11:15:40.283Z,34.60
2019-02-17T11:18:13.998Z,34.60
2019-02-17T11:20:47.659Z,35.00
2019-02-17T11:23:21.363Z,34.50
2019-02-17T11:25:55.126Z,34.50
2019-02-17T11:28:29.707Z,33.90
2019-02-17T11:31:03.367Z,33.90
2019-02-17T11:33:37.053Z,34.50
2019-02-17T11:36:10.820Z,34.80
2019-02-17T11:41:36.037Z,35.20
2019-02-17T11:44:10.548Z,36.20
2019-02-17T11:46:44.447Z,36.10
2019-02-17T11:49:18.059Z,36.20
2019-02-17T11:51:51.823Z,36.60
2019-02-17T11:54:25.557Z,37.70
2019-02-17T11:56:59.104Z,38.20
2019-02-17T11:59:32.725Z,37.70
2019-02-17T12:02:07.192Z,35.00
2019-02-17T12:04:41.598Z,33.20
2019-02-17T12:07:16.123Z,30.60
2019-02-17T12:09:49.744Z,30.50
2019-02-17T12:12:23.574Z,25.90
2019-02-17T12:14:57.172Z,22.60
2019-02-17T12:17:30.984Z,20.30
2019-02-17T12:20:04.787Z,18.80
2019-02-17T12:22:38.545Z,17.90
2019-02-17T12:25:12.113Z,17.30
2019-02-17T12:27:45.711Z,16.90
2019-02-17T12:30:19.480Z,16.70
2019-02-17T12:32:53.290Z,16.50
2019-02-17T12:35:26.883Z,16.40
2019-02-17T12:38:00.612Z,16.20
2019-02-17T12:40:34.218Z,16.20
2019-02-17T12:43:07.756Z,16.20
2019-02-17T12:45:41.327Z,16.00
2019-02-17T12:48:15.126Z,16.10
2019-02-17T12:50:48.972Z,16.10
2019-02-17T12:53:22.712Z,16.10
2019-02-17T12:55:56.343Z,16.00
2019-02-17T12:58:30.392Z,16.00
2019-02-17T13:01:03.970Z,16.00
2019-02-17T13:03:37.547Z,16.00
2019-02-17T13:06:11.180Z,16.00
2019-02-17T13:08:44.944Z,16.00
2019-02-17T13:11:18.564Z,16.10
2019-02-17T13:13:53.059Z,16.10
2019-02-17T13:16:26.691Z,16.10
2019-02-17T13:19:00.405Z,16.10
2019-02-17T13:21:34.084Z,16.00
2019-02-17T13:24:07.804Z,16.00
2019-02-17T13:26:41.427Z,16.10
2019-02-17T13:29:15.134Z,16.10
2019-02-17T13:31:48.817Z,16.10
2019-02-17T13:34:23.231Z,16.20
2019-02-17T13:36:56.965Z,16.10
2019-02-17T13:39:30.711Z,16.20
2019-02-17T13:42:04.316Z,16.20
2019-02-17T13:44:38.170Z,16.30
2019-02-17T13:47:11.973Z,16.30
2019-02-17T13:49:45.603Z,16.40
2019-02-17T13:52:19.138Z,16.40
2019-02-17T13:54:52.949Z,16.40
2019-02-17T13:57:26.465Z,16.50
2019-02-17T14:00:00.039Z,16.50
2019-02-17T14:02:33.604Z,16.60
2019-02-17T14:05:07.163Z,16.60
2019-02-17T14:07:40.740Z,16.60
2019-02-17T14:10:14.359Z,16.60
2019-02-17T14:12:48.727Z,16.60
2019-02-17T14:15:22.436Z,16.60
2019-02-17T14:17:56.174Z,16.70
2019-02-17T14:20:29.757Z,16.70
2019-02-17T14:23:04.382Z,16.80
2019-02-17T14:25:37.976Z,16.80
2019-02-17T14:28:11.710Z,16.80
2019-02-17T14:30:45.438Z,16.90
2019-02-17T14:33:19.265Z,16.80
2019-02-17T14:35:52.805Z,16.80
2019-02-17T14:38:26.668Z,16.80
2019-02-17T14:41:00.319Z,16.80
2019-02-17T14:43:33.940Z,16.80
2019-02-17T14:46:07.517Z,16.90
2019-02-17T14:48:41.107Z,16.90
2019-02-17T14:51:14.719Z,17.00
2019-02-17T14:53:49.105Z,16.90
2019-02-17T14:56:22.690Z,16.90
2019-02-17T14:58:56.249Z,16.80
2019-02-17T15:01:29.815Z,16.80
2019-02-17T15:04:08.695Z,16.70
2019-02-17T15:06:36.986Z,16.70
2019-02-17T15:09:11.333Z,16.70
2019-02-17T15:11:44.970Z,16.70
2019-02-17T15:14:19.303Z,16.50
2019-02-17T15:16:52.971Z,16.50
2019-02-17T15:19:26.757Z,16.40
2019-02-17T15:22:01.327Z,16.40
2019-02-17T15:24:35.019Z,16.30
2019-02-17T15:27:09.516Z,16.20
2019-02-17T15:29:43.963Z,16.10
2019-02-17T15:32:17.704Z,16.10
2019-02-17T15:34:51.439Z,16.00
2019-02-17T15:37:26.131Z,15.70
2019-02-17T15:39:59.707Z,15.60
2019-02-17T15:42:33.398Z,15.50
2019-02-17T15:45:07.903Z,15.40
2019-02-17T15:47:42.468Z,15.10
2019-02-17T15:50:16.137Z,15.10
2019-02-17T15:52:50.487Z,14.80
2019-02-17T15:55:24.291Z,14.70
2019-02-17T15:57:58.106Z,14.60
2019-02-17T16:00:31.660Z,14.50
2019-02-17T16:03:05.282Z,14.40
2019-02-17T16:05:39.016Z,14.20
2019-02-17T16:08:12.779Z,14.20
2019-02-17T16:10:46.385Z,14.10
2019-02-17T16:13:20.118Z,14.00
2019-02-17T16:15:53.668Z,13.90
2019-02-17T16:18:27.277Z,13.70
2019-02-17T16:21:01.725Z,13.50
2019-02-17T16:23:35.426Z,13.50
2019-02-17T16:26:08.960Z,13.40
2019-02-17T16:28:42.591Z,13.30
2019-02-17T16:31:16.233Z,13.20
2019-02-17T16:33:49.755Z,13.10
2019-02-17T16:36:23.363Z,13.00
2019-02-17T16:38:57.627Z,12.80
2019-02-17T16:41:31.268Z,12.70
2019-02-17T16:44:05.078Z,12.70
2019-02-17T16:46:38.844Z,12.60
2019-02-17T16:49:12.438Z,12.40
2019-02-17T16:51:45.968Z,12.30
2019-02-17T16:54:19.552Z,12.10
2019-02-17T16:56:54.102Z,12.00
2019-02-17T16:59:27.783Z,11.90
2019-02-17T17:02:01.394Z,11.90
2019-02-17T17:04:35.237Z,11.90
2019-02-17T17:07:08.802Z,11.80
2019-02-17T17:09:42.624Z,11.80
2019-02-17T17:12:16.299Z,11.80
2019-02-17T17:14:50.810Z,11.60
2019-02-17T17:17:24.442Z,11.60
2019-02-17T17:19:58.202Z,11.50
2019-02-17T17:22:31.839Z,11.40
2019-02-17T17:25:06.408Z,11.40
2019-02-17T17:27:41.414Z,11.30
2019-02-17T17:30:14.712Z,11.30
2019-02-17T17:32:49.312Z,11.20
2019-02-17T17:35:23.116Z,11.20
2019-02-17T17:37:56.748Z,11.10
2019-02-17T17:40:30.399Z,11.00
2019-02-17T17:43:04.028Z,11.00
2019-02-17T17:45:37.632Z,10.80
2019-02-17T17:48:11.216Z,10.80
2019-02-17T17:50:45.787Z,10.80
2019-02-17T17:53:19.481Z,10.70
2019-02-17T17:55:53.072Z,10.70
2019-02-17T17:58:26.655Z,10.60
2019-02-17T18:01:00.427Z,10.70
2019-02-17T18:03:34.249Z,10.60
2019-02-17T18:06:08.006Z,10.60
2019-02-17T18:08:41.653Z,10.50
2019-02-17T18:11:15.212Z,10.50
2019-02-17T18:13:48.901Z,10.40
2019-02-17T18:16:22.712Z,10.50
2019-02-17T18:18:56.326Z,10.40
2019-02-17T18:21:29.960Z,10.30
2019-02-17T18:24:03.675Z,10.20
2019-02-17T18:26:37.266Z,10.10
2019-02-17T18:29:10.894Z,10.00
2019-02-17T18:31:44.696Z,9.80
2019-02-17T18:34:18.475Z,9.70
2019-02-17T18:36:52.046Z,9.70
2019-02-17T18:39:25.759Z,9.60
2019-02-17T18:41:59.344Z,9.60
2019-02-17T18:44:33.862Z,9.50
2019-02-17T18:47:07.575Z,9.50
2019-02-17T18:49:41.214Z,9.50
2019-02-17T18:52:15.566Z,9.40
2019-02-17T18:54:49.251Z,9.40
2019-02-17T18:57:22.789Z,9.40
2019-02-17T18:59:56.599Z,9.30
2019-02-17T19:02:30.317Z,9.30
2019-02-17T19:05:04.687Z,9.30
2019-02-17T19:07:38.447Z,9.30
2019-02-17T19:10:12.245Z,9.30
2019-02-17T19:12:45.828Z,9.30
2019-02-17T19:15:19.424Z,9.20
2019-02-17T19:17:53.276Z,9.20
2019-02-17T19:20:30.507Z,9.10
2019-02-17T19:23:04.295Z,9.00
2019-02-17T19:25:37.891Z,8.80
2019-02-17T19:28:11.527Z,8.70
2019-02-17T19:30:45.290Z,8.70
2019-02-17T19:33:19.782Z,8.70
2019-02-17T19:35:54.275Z,8.60
2019-02-17T19:38:27.899Z,8.60
2019-02-17T19:41:02.415Z,8.50
2019-02-17T19:43:36.103Z,8.50
2019-02-17T19:46:09.695Z,8.40
2019-02-17T19:48:43.335Z,8.30
2019-02-17T19:51:17.004Z,8.30
2019-02-17T19:53:50.659Z,8.20
2019-02-17T19:56:24.118Z,8.20
2019-02-17T19:58:58.554Z,8.10
2019-02-17T20:01:34.295Z,8.10
2019-02-17T20:04:05.807Z,8.10
2019-02-17T20:06:39.578Z,8.00
2019-02-17T20:09:15.354Z,7.90
2019-02-17T20:11:46.912Z,7.80
2019-02-17T20:14:20.551Z,7.80
2019-02-17T20:16:54.149Z,7.70
2019-02-17T20:19:27.866Z,7.80
2019-02-17T20:22:02.287Z,7.80
2019-02-17T20:24:35.971Z,7.70
2019-02-17T20:27:09.604Z,7.80
2019-02-17T20:29:43.819Z,7.80
2019-02-17T20:32:17.405Z,7.80
2019-02-17T20:34:51.119Z,7.80
2019-02-17T20:37:25.374Z,7.80
2019-02-17T20:39:58.242Z,7.80
2019-02-17T20:42:31.866Z,7.80
2019-02-17T20:45:06.065Z,7.70
2019-02-17T20:47:39.779Z,7.60
2019-02-17T20:50:13.546Z,7.60
2019-02-17T20:52:47.233Z,7.50
2019-02-17T20:55:21.760Z,7.40
2019-02-17T20:57:55.515Z,7.40
2019-02-17T21:00:30.061Z,7.40
2019-02-17T21:03:03.743Z,7.40
2019-02-17T21:05:37.592Z,7.40
2019-02-17T21:08:11.284Z,7.30
2019-02-17T21:10:45.095Z,7.30
2019-02-17T21:13:18.858Z,7.30
2019-02-17T21:15:52.437Z,7.20
2019-02-17T21:18:26.002Z,7.20
2019-02-17T21:21:00.355Z,7.10
2019-02-17T21:23:34.104Z,7.10
2019-02-17T21:26:07.727Z,7.10
2019-02-17T21:28:41.544Z,7.10
2019-02-17T21:31:15.119Z,7.10
2019-02-17T21:33:48.713Z,7.00
2019-02-17T21:36:23.442Z,6.90
2019-02-17T21:38:58.682Z,6.70
2019-02-17T21:41:30.088Z,6.60
2019-02-17T21:44:03.655Z,6.60
2019-02-17T21:46:38.160Z,6.60
2019-02-17T21:49:11.779Z,6.50
2019-02-17T21:51:45.347Z,6.50
2019-02-17T21:54:18.922Z,6.50
2019-02-17T21:56:52.690Z,6.40
2019-02-17T21:59:27.172Z,6.40
2019-02-17T22:02:00.729Z,6.40
2019-02-17T22:04:35.858Z,6.40
2019-02-17T22:07:07.988Z,6.40
2019-02-17T22:09:41.602Z,6.30
2019-02-17T22:12:15.396Z,6.30
2019-02-17T22:14:49.100Z,6.30
2019-02-17T22:17:22.632Z,6.30
2019-02-17T22:19:56.246Z,6.20
2019-02-17T22:22:29.800Z,6.10
2019-02-17T22:25:03.399Z,6.00
2019-02-17T22:27:36.989Z,6.00
2019-02-17T22:30:13.374Z,6.00
2019-02-17T22:32:46.979Z,6.00
2019-02-17T22:35:20.678Z,5.90
2019-02-17T22:37:54.291Z,5.90
2019-02-17T22:40:28.807Z,5.80
2019-02-17T22:43:02.514Z,5.80
2019-02-17T22:45:36.824Z,5.80
2019-02-17T22:48:10.510Z,5.80
2019-02-17T22:50:44.100Z,5.80
2019-02-17T22:53:17.777Z,5.70
2019-02-17T22:55:51.353Z,5.70
2019-02-17T22:58:25.707Z,5.70
2019-02-17T23:00:59.375Z,5.70
2019-02-17T23:03:33.069Z,5.70
2019-02-17T23:06:06.698Z,5.60
2019-02-17T23:08:40.287Z,5.60
2019-02-17T23:11:14.100Z,5.50
2019-02-17T23:13:48.512Z,5.50
2019-02-17T23:16:22.213Z,5.50
2019-02-17T23:18:55.760Z,5.50
2019-02-17T23:21:29.536Z,5.50
2019-02-17T23:24:04.014Z,5.40
2019-02-17T23:26:37.698Z,5.40
2019-02-17T23:29:11.330Z,5.40
2019-02-17T23:31:45.046Z,5.40
2019-02-17T23:34:18.764Z,5.40
2019-02-17T23:36:53.246Z,5.20
2019-02-17T23:39:26.975Z,5.10
2019-02-17T23:42:00.608Z,5.10
2019-02-17T23:44:35.191Z,5.10
2019-02-17T23:47:08.919Z,5.10
2019-02-17T23:49:43.405Z,5.10
2019-02-17T23:52:17.713Z,5.00
2019-02-17T23:54:51.461Z,5.00
2019-02-17T23:57:25.003Z,5.00
2019-02-17T23:59:58.741Z,5.00
